Newport, ME

5:14 AM EDT on September 20, 2014 (GMT -0400)
NRE Sales | Change Station
CLOSE
Current Station
Personal Weather Station
Location: St Albans, ME
Elevation: 230 ft
Nearby Weather Stations
Active Advisory: Frost Advisory Active Notice: Public Information Statement

Elev 230 ft 44.90 °N, 69.31 °W | Updated 7 seconds ago

Clear
Clear
28.6 °F
Feels Like 29 °F
N
0.0
Wind Variable Wind from West
Gusts 2.2 mph

Today
High -- | Low -- °F
--% Chance of Precip.
Yesterday
High -- | Low -- °F
Precip. -- in
6:21 AM 6:38 PM
Waning Crescent, 13% visible
Pressure 30.35 in
Visibility 10.0 miles
Clouds Few 25000 ft
Windchill 29 °F
Dew Point 28 °F
Humidity 99%
Rainfall 0.00 in
Snow Depth Not available.
UV 0 out of 12
Pollen 2.00 out of 12
Ozone Good
PM2.5 Good
Flu Activity Not available.
METAR KBGR 200853Z 20003KT 10SM FEW250 03/00 A3035 RMK AO2 SLP277 T00330000 56010

More Conditions Fewer Conditions

Pressure 30.35 in
Visibility 10.0 miles
Clouds Few 25000 ft
Windchill 29 °F
Dew Point 28 °F
Humidity 99%
Rainfall 0.00 in
Snow Depth Not available.
UV 0 out of 12
Pollen 2.00 out of 12
Ozone Good
PM2.5 Good
Flu Activity Not available.
METAR KBGR 200853Z 20003KT 10SM FEW250 03/00 A3035 RMK AO2 SLP277 T00330000 56010

More Conditions Fewer Conditions

10-Day Weather Forecast

Almanac

Astronomy

Sep. 20, 2014 Rise Set
Actual Time 6:21 AM EDT 6:38 PM EDT
Civil Twilight 5:52 AM EDT 7:07 PM EDT
Nautical Twilight 5:17 AM EDT 7:42 PM EDT
Astronomical Twilight 4:42 AM EDT 8:17 PM EDT
Moon 2:50 AM EDT 4:45 PM EDT
Length of Visible Light 13h 15m
Length of Day
12h 16m
Tomorrow will be 3m 5s shorter.
Waning Crescent, 13% of the Moon is Illuminated
Today
Waning Crescent
Sep 24
New
Oct 1
First Quarter
Oct 8
Full
Oct 15
Last Quarter

Today's Extremes

State Highs State Lows

Community

WunderPhotos

Upload Photos

1,754,794 photos uploaded!

WunderBlogs® & News

Nearby

Air Quality

  Air Quality AQ Index Pollutant
Yesterday Good
OZONE
Yesterday Good
PM2.5
Current Good
PM2.5
Current Good
OZONE
Saturday Good
OZONE
Saturday Good
PM2.5
Sunday Good
OZONE
Sunday Good
PM2.5
Monday Good
OZONE
Monday Good
PM2.5
Tuesday Good
OZONE
Tuesday Good
PM2.5
Wednesday Good
OZONE
Wednesday Good
PM2.5

Snow Depth

Station Depth Elevation
No new snow has been reported.

Earthquake Activity

City Distance Mag. Time & Date
No recent earthquake activity has been reported nearby.
Minimum magnitude displayed is 2.5.

Coastal Water Temperatures

Place Temperature
Bar Harbor, ME 55.0 °F
Portland, ME 57.9 °F

Nearby Weather Stations